Time;durP1;ratioP1;P1;durP2;ratioP2;P2;SDS_P1;SDS_P2;PMS_P1;PMS_P2;Temp;Humidity;BMP_temperature;BMP_pressure;BME280_temperature;BME280_humidity;BME280_pressure;Samples;Min_cycle;Max_cycle;Signal;HPM_P1;HPM_P2
2022/04/07 00:00:09;;;;;;;20.30;2.75;;;;;;;;;;5026732;28;20389;-71
2022/04/07 00:02:35;;;;;;;13.80;2.80;;;;;;;;;;5054762;28;20116;-71
2022/04/07 00:05:01;;;;;;;8.10;1.70;;;;;;;;;;5024095;28;20060;-70
2022/04/07 00:07:27;;;;;;;15.02;2.22;;;;;;;;;;5028164;28;20112;-71
2022/04/07 00:09:53;;;;;;;15.35;2.88;;;;;;;;;;5030566;28;20029;-70
2022/04/07 00:12:19;;;;;;;14.45;3.63;;;;;;;;;;5028598;28;20030;-70
2022/04/07 00:14:45;;;;;;;15.40;2.30;;;;;;;;;;5033389;28;20036;-70
2022/04/07 00:17:11;;;;;;;17.75;2.42;;;;;;;;;;5028774;28;20043;-71
2022/04/07 00:19:38;;;;;;;15.98;3.08;;;;;;;;;;5030242;28;20449;-71
2022/04/07 00:22:04;;;;;;;19.15;3.45;;;;;;;;;;5030733;28;20119;-70
2022/04/07 00:24:30;;;;;;;18.45;3.40;;;;;;;;;;5028845;28;20439;-70
2022/04/07 00:26:56;;;;;;;17.27;3.03;;;;;;;;;;5031079;28;20038;-70
2022/04/07 00:29:22;;;;;;;18.63;3.33;;;;;;;;;;5029795;28;20057;-70
2022/04/07 00:31:55;;;;;;;22.10;3.72;;;;;;;;;;5028536;28;20079;-70
2022/04/07 00:34:21;;;;;;;20.15;2.70;;;;;;;;;;5030745;28;20029;-70
2022/04/07 00:36:47;;;;;;;16.23;3.08;;;;;;;;;;5026259;28;20057;-70
2022/04/07 00:39:13;;;;;;;15.70;2.80;;;;;;;;;;5031536;28;20048;-70
2022/04/07 00:41:40;;;;;;;18.85;3.78;;;;;;;;;;5030463;28;20045;-70
2022/04/07 00:44:08;;;;;;;12.80;2.75;;;;;;;;;;5030054;28;20037;-70
2022/04/07 00:46:35;;;;;;;16.52;2.97;;;;;;;;;;5027760;28;20041;-70
2022/04/07 00:49:01;;;;;;;16.73;4.32;;;;;;;;;;5031319;28;20393;-71
2022/04/07 00:51:28;;;;;;;26.83;3.92;;;;;;;;;;5030252;28;20026;-70
2022/04/07 00:53:54;;;;;;;22.98;3.17;;;;;;;;;;5029144;28;20030;-70
2022/04/07 00:56:20;;;;;;;26.52;3.45;;;;;;;;;;5027514;28;20061;-70
2022/04/07 00:58:47;;;;;;;22.40;3.17;;;;;;;;;;5030457;28;20041;-70
2022/04/07 01:01:14;;;;;;;21.92;3.88;;;;;;;;;;5031776;28;20077;-70
2022/04/07 01:03:40;;;;;;;32.63;5.10;;;;;;;;;;5016976;28;20140;-70
2022/04/07 01:06:06;;;;;;;26.08;4.20;;;;;;;;;;5027881;28;20034;-71
2022/04/07 01:08:32;;;;;;;31.75;4.40;;;;;;;;;;5024676;28;20030;-71
2022/04/07 01:10:59;;;;;;;24.33;4.25;;;;;;;;;;5030959;28;20021;-72
2022/04/07 01:13:41;;;;;;;21.05;3.58;;;;;;;;;;5030541;28;20547;-71
2022/04/07 01:16:07;;;;;;;18.30;3.50;;;;;;;;;;5030397;28;20179;-71
2022/04/07 01:18:33;;;;;;;29.20;3.42;;;;;;;;;;5028016;28;20029;-71
2022/04/07 01:20:59;;;;;;;30.58;4.63;;;;;;;;;;5031452;28;20091;-71
2022/04/07 01:23:27;;;;;;;35.00;5.85;;;;;;;;;;5027279;28;20034;-71
2022/04/07 01:25:56;;;;;;;26.02;3.50;;;;;;;;;;5030021;28;20063;-71
2022/04/07 01:28:22;;;;;;;21.88;4.82;;;;;;;;;;5028424;28;20768;-70
2022/04/07 01:30:48;;;;;;;27.45;4.72;;;;;;;;;;5027788;28;20025;-71
2022/04/07 01:33:14;;;;;;;28.55;4.38;;;;;;;;;;5062303;28;20041;-70
2022/04/07 01:35:40;;;;;;;26.60;3.72;;;;;;;;;;5012208;28;20088;-71
2022/04/07 01:38:06;;;;;;;33.17;3.83;;;;;;;;;;5019866;28;20042;-70
2022/04/07 01:40:33;;;;;;;26.27;4.05;;;;;;;;;;5027830;28;20033;-70
2022/04/07 01:43:05;;;;;;;22.27;3.00;;;;;;;;;;5023748;28;20025;-70
2022/04/07 01:45:33;;;;;;;26.88;4.30;;;;;;;;;;5026541;28;20096;-69
2022/04/07 01:47:59;;;;;;;32.35;6.72;;;;;;;;;;5027026;28;20024;-70
2022/04/07 01:50:25;;;;;;;34.30;6.53;;;;;;;;;;5028281;28;20044;-70
2022/04/07 01:52:52;;;;;;;20.52;3.67;;;;;;;;;;5027495;28;20037;-70
2022/04/07 01:55:18;;;;;;;24.75;4.50;;;;;;;;;;5029900;28;20103;-70
2022/04/07 01:57:45;;;;;;;25.15;4.53;;;;;;;;;;5030225;28;20030;-71
2022/04/07 02:00:11;;;;;;;30.55;4.22;;;;;;;;;;5042269;28;20030;-71
2022/04/07 02:02:38;;;;;;;26.90;3.10;;;;;;;;;;5026941;28;20029;-71
2022/04/07 02:05:08;;;;;;;25.70;4.13;;;;;;;;;;5033015;28;20084;-71
2022/04/07 02:07:35;;;;;;;32.72;5.22;;;;;;;;;;5032628;28;20123;-71
2022/04/07 02:10:01;;;;;;;29.55;5.03;;;;;;;;;;5032010;28;20033;-71
2022/04/07 02:12:29;;;;;;;26.58;4.63;;;;;;;;;;5032178;28;20947;-71
2022/04/07 02:14:56;;;;;;;23.73;4.38;;;;;;;;;;5033459;28;20114;-70
2022/04/07 02:17:22;;;;;;;25.48;4.65;;;;;;;;;;5032396;28;20048;-71
2022/04/07 02:19:52;;;;;;;41.63;5.78;;;;;;;;;;5031666;28;20030;-70
2022/04/07 02:22:19;;;;;;;28.08;4.63;;;;;;;;;;5033012;28;20036;-71
2022/04/07 02:24:45;;;;;;;34.65;5.82;;;;;;;;;;5032064;28;20045;-71
2022/04/07 02:27:11;;;;;;;40.33;6.88;;;;;;;;;;5032803;28;20025;-71
2022/04/07 02:29:37;;;;;;;24.20;4.53;;;;;;;;;;5033274;28;20049;-70
2022/04/07 02:32:04;;;;;;;19.75;3.50;;;;;;;;;;5032369;28;20040;-71
2022/04/07 02:34:30;;;;;;;37.42;4.80;;;;;;;;;;5029825;28;20390;-70
2022/04/07 02:36:56;;;;;;;25.45;3.83;;;;;;;;;;5033284;28;20033;-71
2022/04/07 02:39:23;;;;;;;23.63;3.63;;;;;;;;;;5032279;28;20175;-71
2022/04/07 02:41:49;;;;;;;22.17;3.63;;;;;;;;;;5032650;28;20461;-71
2022/04/07 02:44:17;;;;;;;30.67;4.00;;;;;;;;;;5031566;28;20397;-70
2022/04/07 02:46:43;;;;;;;24.73;3.42;;;;;;;;;;5032737;28;20029;-70
2022/04/07 02:49:09;;;;;;;25.60;3.70;;;;;;;;;;5031821;28;20105;-71
2022/04/07 02:51:35;;;;;;;25.05;5.07;;;;;;;;;;5033203;28;20021;-71
2022/04/07 02:54:01;;;;;;;26.48;3.10;;;;;;;;;;5029808;28;20033;-71
2022/04/07 02:56:28;;;;;;;22.45;3.58;;;;;;;;;;5031485;28;20041;-70
2022/04/07 02:58:55;;;;;;;40.97;6.22;;;;;;;;;;5033357;28;20036;-70
2022/04/07 03:01:21;;;;;;;33.60;5.78;;;;;;;;;;5021912;28;20022;-70
2022/04/07 03:03:48;;;;;;;21.13;3.33;;;;;;;;;;5030754;28;20045;-70
2022/04/07 03:06:14;;;;;;;30.00;3.92;;;;;;;;;;5032453;28;20037;-70
2022/04/07 03:08:40;;;;;;;27.80;3.67;;;;;;;;;;5022231;28;20030;-71
2022/04/07 03:11:08;;;;;;;21.90;4.35;;;;;;;;;;5031215;28;20489;-71
2022/04/07 03:13:36;;;;;;;26.98;4.50;;;;;;;;;;5032890;28;20238;-71
2022/04/07 03:16:02;;;;;;;22.52;4.10;;;;;;;;;;5031018;28;20030;-71
2022/04/07 03:18:28;;;;;;;25.77;4.05;;;;;;;;;;5029738;28;20037;-71
2022/04/07 03:20:54;;;;;;;28.23;4.07;;;;;;;;;;5032269;28;20041;-71
2022/04/07 03:23:21;;;;;;;26.85;4.90;;;;;;;;;;5032444;28;20124;-71
2022/04/07 03:25:47;;;;;;;27.73;5.22;;;;;;;;;;5031336;28;20022;-71
2022/04/07 03:28:13;;;;;;;21.70;3.40;;;;;;;;;;5026781;28;20049;-71
2022/04/07 03:30:39;;;;;;;25.55;3.78;;;;;;;;;;5062993;28;20099;-71
2022/04/07 03:33:08;;;;;;;25.02;4.30;;;;;;;;;;5013513;28;20021;-71
2022/04/07 03:35:35;;;;;;;26.20;5.72;;;;;;;;;;5030298;28;20044;-71
2022/04/07 03:38:01;;;;;;;26.55;5.35;;;;;;;;;;5025350;28;20040;-71
2022/04/07 03:40:27;;;;;;;27.85;3.97;;;;;;;;;;5025118;28;20051;-71
2022/04/07 03:42:53;;;;;;;30.20;3.50;;;;;;;;;;5023208;28;20084;-71
2022/04/07 03:45:20;;;;;;;30.55;5.53;;;;;;;;;;5022506;28;20040;-71
2022/04/07 03:47:46;;;;;;;36.25;4.47;;;;;;;;;;5029785;28;20519;-71
2022/04/07 03:50:12;;;;;;;24.75;4.15;;;;;;;;;;5029124;28;20462;-71
2022/04/07 03:52:39;;;;;;;25.50;4.25;;;;;;;;;;5031010;28;20026;-71
2022/04/07 03:55:05;;;;;;;27.08;4.30;;;;;;;;;;5032206;28;20025;-71
2022/04/07 03:57:31;;;;;;;21.48;3.42;;;;;;;;;;5021064;28;20033;-71
2022/04/07 03:59:57;;;;;;;33.15;6.13;;;;;;;;;;5021136;28;20184;-70
2022/04/07 04:02:23;;;;;;;39.80;6.28;;;;;;;;;;5030150;28;20029;-71
2022/04/07 04:04:49;;;;;;;31.48;4.40;;;;;;;;;;5029551;28;20060;-71
2022/04/07 04:07:17;;;;;;;33.67;5.78;;;;;;;;;;5024511;28;20045;-71
2022/04/07 04:09:45;;;;;;;36.65;5.15;;;;;;;;;;5017123;28;20025;-72
2022/04/07 04:12:11;;;;;;;40.75;5.22;;;;;;;;;;5024764;28;20481;-72
2022/04/07 04:14:37;;;;;;;33.05;4.72;;;;;;;;;;5016192;28;20033;-72
2022/04/07 04:17:04;;;;;;;39.88;6.40;;;;;;;;;;5027242;28;20438;-72
2022/04/07 04:19:30;;;;;;;35.72;5.80;;;;;;;;;;5026843;28;20080;-72
2022/04/07 04:21:56;;;;;;;39.35;6.57;;;;;;;;;;5061583;28;20541;-72
2022/04/07 04:24:22;;;;;;;39.58;6.47;;;;;;;;;;5029242;28;20044;-72
2022/04/07 04:26:48;;;;;;;45.05;7.00;;;;;;;;;;5030927;28;20061;-72
2022/04/07 04:29:14;;;;;;;36.58;7.03;;;;;;;;;;5024069;28;20084;-72
2022/04/07 04:31:40;;;;;;;36.97;5.45;;;;;;;;;;5027171;28;20036;-72
2022/04/07 04:34:06;;;;;;;36.90;5.18;;;;;;;;;;5029896;28;20037;-73
2022/04/07 04:36:34;;;;;;;42.35;6.30;;;;;;;;;;5027116;28;20042;-72
2022/04/07 04:39:00;;;;;;;36.75;5.70;;;;;;;;;;5029623;28;20074;-72
2022/04/07 04:41:26;;;;;;;53.72;7.63;;;;;;;;;;5030344;28;20045;-72
2022/04/07 04:43:54;;;;;;;38.53;6.60;;;;;;;;;;5024072;28;20144;-70
2022/04/07 04:46:20;;;;;;;41.13;5.88;;;;;;;;;;5020651;28;20080;-71
2022/04/07 04:48:46;;;;;;;44.42;7.32;;;;;;;;;;5028917;28;20036;-73
2022/04/07 04:51:12;;;;;;;36.92;7.10;;;;;;;;;;5025891;28;20034;-71
2022/04/07 04:53:38;;;;;;;36.20;4.80;;;;;;;;;;5018878;28;20049;-70
2022/04/07 04:56:04;;;;;;;27.90;6.03;;;;;;;;;;5022495;28;20037;-71
2022/04/07 04:58:33;;;;;;;29.10;4.28;;;;;;;;;;5024332;28;20088;-72
2022/04/07 05:00:59;;;;;;;19.50;3.50;;;;;;;;;;5031004;28;20045;-72
2022/04/07 05:03:26;;;;;;;12.85;2.38;;;;;;;;;;5030191;28;20043;-73
2022/04/07 05:05:52;;;;;;;12.82;1.58;;;;;;;;;;5027979;28;20489;-72
2022/04/07 05:08:21;;;;;;;17.70;3.42;;;;;;;;;;5023915;28;20083;-73
2022/04/07 05:10:47;;;;;;;12.25;1.95;;;;;;;;;;5031300;28;20095;-73
2022/04/07 05:13:13;;;;;;;13.90;2.42;;;;;;;;;;5028334;28;20101;-73
2022/04/07 05:15:39;;;;;;;10.48;2.08;;;;;;;;;;5030766;28;20110;-73
2022/04/07 05:18:05;;;;;;;15.00;2.15;;;;;;;;;;5030297;28;20022;-73
2022/04/07 05:20:32;;;;;;;16.38;2.25;;;;;;;;;;5028040;28;20052;-73
2022/04/07 05:22:58;;;;;;;10.30;2.03;;;;;;;;;;5026795;28;20030;-73
2022/04/07 05:25:24;;;;;;;17.65;2.53;;;;;;;;;;5030927;28;20044;-73
2022/04/07 05:27:50;;;;;;;8.93;1.48;;;;;;;;;;5028505;28;20038;-73
2022/04/07 05:30:16;;;;;;;10.82;1.50;;;;;;;;;;5030001;28;20021;-73
2022/04/07 05:32:46;;;;;;;7.03;1.25;;;;;;;;;;5027684;28;20065;-73
2022/04/07 05:35:13;;;;;;;8.52;1.02;;;;;;;;;;5035486;28;20042;-73
2022/04/07 05:37:40;;;;;;;4.28;0.82;;;;;;;;;;5032736;28;20065;-74
2022/04/07 05:40:06;;;;;;;5.97;1.13;;;;;;;;;;5049051;28;20041;-74
2022/04/07 05:42:32;;;;;;;7.15;1.23;;;;;;;;;;5032586;28;20533;-73
2022/04/07 05:44:58;;;;;;;11.75;1.77;;;;;;;;;;5029327;28;20041;-73
2022/04/07 05:47:24;;;;;;;9.80;1.65;;;;;;;;;;5032577;28;20393;-73
2022/04/07 05:49:53;;;;;;;6.15;0.95;;;;;;;;;;5031646;28;20024;-73
2022/04/07 05:52:19;;;;;;;2.72;0.70;;;;;;;;;;5023803;28;20065;-73
2022/04/07 05:54:45;;;;;;;10.65;1.00;;;;;;;;;;5030596;28;20049;-73
2022/04/07 05:57:11;;;;;;;6.88;1.35;;;;;;;;;;5031796;28;20030;-73
2022/04/07 05:59:38;;;;;;;7.95;0.90;;;;;;;;;;5031454;28;20392;-73
2022/04/07 06:02:04;;;;;;;12.45;1.92;;;;;;;;;;5034481;28;20029;-73
2022/04/07 06:04:30;;;;;;;4.82;0.88;;;;;;;;;;5028156;28;20076;-74
2022/04/07 06:06:56;;;;;;;9.52;0.65;;;;;;;;;;5025232;28;20416;-73
2022/04/07 06:09:22;;;;;;;6.75;1.15;;;;;;;;;;5022262;28;20488;-74
2022/04/07 06:11:48;;;;;;;4.68;0.95;;;;;;;;;;5034645;28;20397;-74
2022/04/07 06:14:14;;;;;;;4.40;0.85;;;;;;;;;;5031302;28;20046;-74
2022/04/07 06:16:41;;;;;;;3.15;0.80;;;;;;;;;;5026861;28;20088;-74
2022/04/07 06:19:07;;;;;;;3.35;1.15;;;;;;;;;;5011777;28;20433;-74
2022/04/07 06:21:33;;;;;;;7.40;1.48;;;;;;;;;;5025872;28;20037;-73
2022/04/07 06:24:00;;;;;;;8.85;2.20;;;;;;;;;;5025664;28;20037;-72
2022/04/07 06:26:29;;;;;;;8.07;1.00;;;;;;;;;;5029794;28;20038;-76
2022/04/07 06:28:55;;;;;;;7.55;1.27;;;;;;;;;;5033679;28;20116;-73
2022/04/07 06:31:21;;;;;;;6.20;1.30;;;;;;;;;;5029334;28;20038;-74
2022/04/07 06:33:47;;;;;;;7.03;1.00;;;;;;;;;;5023251;28;20039;-74
2022/04/07 06:36:13;;;;;;;5.05;0.80;;;;;;;;;;5027584;28;20042;-74
2022/04/07 06:38:39;;;;;;;11.70;0.98;;;;;;;;;;5030255;28;20068;-74
2022/04/07 06:41:06;;;;;;;4.85;1.13;;;;;;;;;;5031838;28;20060;-74
2022/04/07 06:43:32;;;;;;;5.47;0.80;;;;;;;;;;5032843;28;20028;-74
2022/04/07 06:45:58;;;;;;;6.30;1.10;;;;;;;;;;5020120;28;20037;-74
2022/04/07 06:48:24;;;;;;;4.82;1.02;;;;;;;;;;5030354;28;20032;-75
2022/04/07 06:50:50;;;;;;;5.40;1.00;;;;;;;;;;5023879;28;20037;-73
2022/04/07 06:53:17;;;;;;;5.50;1.20;;;;;;;;;;5028116;28;20397;-72
2022/04/07 06:55:43;;;;;;;6.22;1.02;;;;;;;;;;5026349;28;20052;-72
2022/04/07 06:58:11;;;;;;;4.82;1.38;;;;;;;;;;5028210;28;20404;-73
2022/04/07 07:00:44;;;;;;;8.00;0.95;;;;;;;;;;5031646;28;22492;-73
2022/04/07 07:03:11;;;;;;;4.70;1.00;;;;;;;;;;5042358;28;20112;-74
2022/04/07 07:05:37;;;;;;;5.93;1.10;;;;;;;;;;5031331;28;20053;-75
2022/04/07 07:08:14;;;;;;;6.60;1.15;;;;;;;;;;5033080;28;20121;-74
2022/04/07 07:10:40;;;;;;;8.52;1.05;;;;;;;;;;5025358;28;20026;-73
2022/04/07 07:13:06;;;;;;;11.85;2.28;;;;;;;;;;5031144;28;20037;-73
2022/04/07 07:15:32;;;;;;;4.70;1.08;;;;;;;;;;5020963;28;20171;-71
2022/04/07 07:17:58;;;;;;;6.65;1.25;;;;;;;;;;5024703;28;20022;-73
2022/04/07 07:20:24;;;;;;;12.80;1.40;;;;;;;;;;5029006;28;20036;-72
2022/04/07 07:22:50;;;;;;;8.00;1.10;;;;;;;;;;5063092;28;20037;-75
2022/04/07 07:25:17;;;;;;;8.18;0.93;;;;;;;;;;5030166;28;20025;-74
2022/04/07 07:27:44;;;;;;;3.83;1.00;;;;;;;;;;5025923;28;20036;-74
2022/04/07 07:30:10;;;;;;;7.82;1.83;;;;;;;;;;5031471;28;20033;-74
2022/04/07 07:32:40;;;;;;;4.75;1.00;;;;;;;;;;5029796;28;20483;-74
2022/04/07 07:35:07;;;;;;;3.35;0.80;;;;;;;;;;5029894;28;20037;-74
2022/04/07 07:37:34;;;;;;;3.92;0.93;;;;;;;;;;5059670;28;20381;-74
2022/04/07 07:40:06;;;;;;;4.93;0.98;;;;;;;;;;5032135;28;20036;-75
2022/04/07 07:42:32;;;;;;;5.43;1.00;;;;;;;;;;5028790;28;20035;-74
2022/04/07 07:44:58;;;;;;;7.20;1.50;;;;;;;;;;5027884;28;20049;-74
2022/04/07 07:47:26;;;;;;;6.85;0.77;;;;;;;;;;5039988;28;20041;-74
2022/04/07 07:49:53;;;;;;;3.63;1.00;;;;;;;;;;5028913;28;20025;-74
2022/04/07 07:52:19;;;;;;;8.10;1.50;;;;;;;;;;5023956;28;20391;-72
2022/04/07 07:54:45;;;;;;;10.40;5.13;;;;;;;;;;5027107;28;20034;-73
2022/04/07 07:57:11;;;;;;;6.47;1.35;;;;;;;;;;5027736;28;20084;-72
2022/04/07 07:59:37;;;;;;;9.82;1.10;;;;;;;;;;5025665;28;20033;-73
2022/04/07 08:02:03;;;;;;;4.25;1.27;;;;;;;;;;5027346;28;20114;-72
2022/04/07 08:04:29;;;;;;;5.70;0.80;;;;;;;;;;5028210;28;20046;-73
2022/04/07 08:06:55;;;;;;;3.53;0.98;;;;;;;;;;5031034;28;20049;-72
2022/04/07 08:09:21;;;;;;;6.03;0.82;;;;;;;;;;5022892;28;20041;-73
2022/04/07 08:11:47;;;;;;;4.25;0.90;;;;;;;;;;5057203;28;20030;-72
2022/04/07 08:14:13;;;;;;;21.63;3.33;;;;;;;;;;5023398;28;20444;-72
2022/04/07 08:16:40;;;;;;;5.10;1.10;;;;;;;;;;5021545;28;20471;-73
2022/04/07 08:19:06;;;;;;;4.30;1.00;;;;;;;;;;5023501;28;20088;-73
2022/04/07 08:21:32;;;;;;;6.20;1.08;;;;;;;;;;5020600;28;20480;-73
2022/04/07 08:23:58;;;;;;;9.05;1.33;;;;;;;;;;5030627;28;20029;-73
2022/04/07 08:26:24;;;;;;;10.40;2.35;;;;;;;;;;5017944;28;20503;-72
2022/04/07 08:28:50;;;;;;;7.43;1.10;;;;;;;;;;5018321;28;20115;-73
2022/04/07 08:31:16;;;;;;;9.80;1.80;;;;;;;;;;5019971;28;20022;-72
2022/04/07 08:33:42;;;;;;;5.30;1.10;;;;;;;;;;5020217;28;20559;-72
2022/04/07 08:36:09;;;;;;;14.15;4.70;;;;;;;;;;5038838;28;20034;-72
2022/04/07 08:38:35;;;;;;;6.63;0.90;;;;;;;;;;5025409;28;20022;-73
2022/04/07 08:41:01;;;;;;;9.00;1.00;;;;;;;;;;5021489;28;20049;-72
2022/04/07 08:43:27;;;;;;;9.98;2.30;;;;;;;;;;5025269;28;20052;-71
2022/04/07 08:45:53;;;;;;;7.70;1.42;;;;;;;;;;5024257;28;20478;-71
2022/04/07 08:48:21;;;;;;;5.43;1.20;;;;;;;;;;5031465;28;20060;-71
2022/04/07 08:50:49;;;;;;;6.60;1.52;;;;;;;;;;5027551;28;20521;-71
2022/04/07 08:53:15;;;;;;;9.80;1.40;;;;;;;;;;5026925;28;20041;-71
2022/04/07 08:55:41;;;;;;;9.48;1.20;;;;;;;;;;5031047;28;20043;-71
2022/04/07 08:58:10;;;;;;;7.55;1.15;;;;;;;;;;5029847;28;20160;-71
2022/04/07 09:00:36;;;;;;;13.00;1.88;;;;;;;;;;5021016;28;20033;-71
2022/04/07 09:03:02;;;;;;;8.95;1.20;;;;;;;;;;5031733;28;20033;-72
2022/04/07 09:05:28;;;;;;;15.40;2.33;;;;;;;;;;5029739;28;20053;-72
2022/04/07 09:07:55;;;;;;;8.90;2.45;;;;;;;;;;5035128;28;20033;-71
2022/04/07 09:10:22;;;;;;;14.73;2.13;;;;;;;;;;5037371;28;20035;-71
2022/04/07 09:12:49;;;;;;;13.48;2.38;;;;;;;;;;5037502;28;20036;-71
2022/04/07 09:15:15;;;;;;;12.07;1.80;;;;;;;;;;5051525;28;20488;-72
2022/04/07 09:18:08;;;;;;;7.88;1.63;;;;;;;;;;5047099;28;20033;-71
2022/04/07 09:20:42;;;;;;;15.77;2.63;;;;;;;;;;5035128;28;20553;-72
2022/04/07 09:23:11;;;;;;;11.95;2.03;;;;;;;;;;5030204;28;20092;-71
2022/04/07 09:25:41;;;;;;;12.55;2.90;;;;;;;;;;5036082;28;20034;-71
2022/04/07 09:28:11;;;;;;;8.48;1.58;;;;;;;;;;5033300;28;20030;-71
2022/04/07 09:30:37;;;;;;;7.97;1.48;;;;;;;;;;5036810;28;20021;-71
2022/04/07 09:33:04;;;;;;;13.50;2.30;;;;;;;;;;5035153;28;20033;-71
2022/04/07 09:35:30;;;;;;;10.55;2.10;;;;;;;;;;5032306;28;20062;-71
2022/04/07 09:38:01;;;;;;;17.35;2.50;;;;;;;;;;5033447;28;20440;-71
2022/04/07 09:40:28;;;;;;;11.07;3.05;;;;;;;;;;5037141;28;20025;-71
2022/04/07 09:42:58;;;;;;;12.85;3.20;;;;;;;;;;5034270;28;20764;-71
2022/04/07 09:45:25;;;;;;;10.05;2.28;;;;;;;;;;5027515;28;20044;-71
2022/04/07 09:47:51;;;;;;;11.70;3.00;;;;;;;;;;5033223;28;20056;-71
2022/04/07 09:50:20;;;;;;;15.02;3.55;;;;;;;;;;5036367;28;20064;-71
2022/04/07 09:53:03;;;;;;;10.00;1.95;;;;;;;;;;5033251;28;20064;-71
2022/04/07 09:55:40;;;;;;;10.95;2.67;;;;;;;;;;5036667;28;20060;-70
2022/04/07 09:58:07;;;;;;;12.73;2.10;;;;;;;;;;5029660;28;20056;-71
2022/04/07 10:00:34;;;;;;;10.73;2.17;;;;;;;;;;5034817;28;20056;-70
2022/04/07 10:03:00;;;;;;;10.82;2.53;;;;;;;;;;5045916;28;20033;-71
2022/04/07 10:05:26;;;;;;;15.10;2.00;;;;;;;;;;5036211;28;20045;-70
2022/04/07 10:07:53;;;;;;;10.25;2.08;;;;;;;;;;5035354;28;20033;-70
2022/04/07 10:10:19;;;;;;;13.63;1.98;;;;;;;;;;5035961;28;20076;-70
2022/04/07 10:12:49;;;;;;;13.73;1.65;;;;;;;;;;5035169;28;20034;-70
2022/04/07 10:15:15;;;;;;;13.20;2.47;;;;;;;;;;5036469;28;20038;-70
2022/04/07 10:17:42;;;;;;;15.98;3.08;;;;;;;;;;5039134;28;20040;-70
2022/04/07 10:20:09;;;;;;;12.60;2.47;;;;;;;;;;5031733;28;20033;-70
2022/04/07 10:22:58;;;;;;;8.80;2.47;;;;;;;;;;5032652;28;20479;-70
2022/04/07 10:25:25;;;;;;;17.73;2.83;;;;;;;;;;5016557;28;20049;-71
2022/04/07 10:27:55;;;;;;;17.70;3.00;;;;;;;;;;5021316;28;20037;-70
2022/04/07 10:30:22;;;;;;;16.98;3.15;;;;;;;;;;5033139;28;20060;-70
2022/04/07 10:32:56;;;;;;;12.50;2.58;;;;;;;;;;5028051;28;20095;-70
2022/04/07 10:35:40;;;;;;;12.85;2.45;;;;;;;;;;5027721;28;20384;-70
2022/04/07 10:38:07;;;;;;;17.17;3.92;;;;;;;;;;5031087;28;20053;-71
2022/04/07 10:40:40;;;;;;;14.02;2.30;;;;;;;;;;5032495;28;20091;-70
2022/04/07 10:43:06;;;;;;;16.95;4.13;;;;;;;;;;5030406;28;20381;-71
2022/04/07 10:45:33;;;;;;;18.10;3.22;;;;;;;;;;5017774;28;20041;-71
2022/04/07 10:48:20;;;;;;;19.13;3.15;;;;;;;;;;5031424;28;20041;-70
2022/04/07 10:50:50;;;;;;;14.25;1.95;;;;;;;;;;5019813;28;20041;-71
2022/04/07 10:53:22;;;;;;;13.18;2.50;;;;;;;;;;5028748;28;20069;-72
2022/04/07 10:55:54;;;;;;;19.35;2.97;;;;;;;;;;5021134;28;20041;-72
2022/04/07 10:58:21;;;;;;;19.65;3.38;;;;;;;;;;5028148;28;20037;-72
2022/04/07 11:00:48;;;;;;;15.00;3.10;;;;;;;;;;5025068;28;20419;-72
2022/04/07 11:03:15;;;;;;;16.13;3.00;;;;;;;;;;5031948;28;20608;-72
2022/04/07 11:06:13;;;;;;;14.82;3.25;;;;;;;;;;5025834;28;20046;-72
2022/04/07 11:08:39;;;;;;;15.30;3.28;;;;;;;;;;4992535;28;20128;-71
2022/04/07 11:11:06;;;;;;;18.98;3.25;;;;;;;;;;5062965;28;20489;-71
2022/04/07 11:13:42;;;;;;;18.90;3.10;;;;;;;;;;5030971;28;20029;-72
2022/04/07 11:16:36;;;;;;;16.38;4.43;;;;;;;;;;5030004;28;20080;-72
2022/04/07 11:19:20;;;;;;;15.25;2.88;;;;;;;;;;5024816;28;20025;-72
2022/04/07 11:21:49;;;;;;;18.10;3.85;;;;;;;;;;5030205;28;20037;-71
2022/04/07 11:24:22;;;;;;;14.13;2.33;;;;;;;;;;5030544;28;20034;-70
2022/04/07 11:26:48;;;;;;;19.85;7.53;;;;;;;;;;5019333;28;20030;-71
2022/04/07 11:29:14;;;;;;;18.05;3.25;;;;;;;;;;5018031;28;20359;-70
2022/04/07 11:31:45;;;;;;;15.32;2.22;;;;;;;;;;5030083;28;20052;-71
2022/04/07 11:34:40;;;;;;;14.88;2.10;;;;;;;;;;5020855;28;20030;-71
2022/04/07 11:37:10;;;;;;;15.70;3.17;;;;;;;;;;5025883;28;20488;-70
2022/04/07 11:39:40;;;;;;;13.20;2.38;;;;;;;;;;5026415;28;20105;-70
2022/04/07 11:42:06;;;;;;;11.00;2.67;;;;;;;;;;5063109;28;20037;-69
2022/04/07 11:44:32;;;;;;;15.30;2.28;;;;;;;;;;5025458;28;20038;-71
2022/04/07 11:47:02;;;;;;;15.35;2.50;;;;;;;;;;5021847;28;20042;-71
2022/04/07 11:49:28;;;;;;;16.20;3.85;;;;;;;;;;5028362;28;20481;-72
2022/04/07 11:51:55;;;;;;;24.58;3.38;;;;;;;;;;5041093;28;20038;-70
2022/04/07 11:54:21;;;;;;;14.45;2.85;;;;;;;;;;5019251;28;20037;-70
2022/04/07 11:56:48;;;;;;;13.20;2.83;;;;;;;;;;5018958;28;20029;-68
2022/04/07 11:59:15;;;;;;;15.90;3.13;;;;;;;;;;5027427;28;20025;-69
2022/04/07 12:01:42;;;;;;;16.27;3.90;;;;;;;;;;5028725;28;20048;-69
2022/04/07 12:04:09;;;;;;;12.52;2.47;;;;;;;;;;5033985;28;20029;-69
2022/04/07 12:06:36;;;;;;;21.25;3.50;;;;;;;;;;5028527;28;20116;-70
2022/04/07 12:09:03;;;;;;;13.25;2.50;;;;;;;;;;5031023;28;20147;-69
2022/04/07 12:11:33;;;;;;;11.32;2.60;;;;;;;;;;5027953;28;20059;-69
2022/04/07 12:14:00;;;;;;;12.35;2.38;;;;;;;;;;5022029;28;20079;-70
2022/04/07 12:16:27;;;;;;;12.38;2.17;;;;;;;;;;5029653;28;20080;-70
2022/04/07 12:19:00;;;;;;;10.40;1.55;;;;;;;;;;5028827;28;20132;-70
2022/04/07 12:21:26;;;;;;;13.57;2.45;;;;;;;;;;5028972;28;20414;-70
2022/04/07 12:24:13;;;;;;;7.93;1.85;;;;;;;;;;5030976;28;20068;-70
2022/04/07 12:26:43;;;;;;;9.57;1.70;;;;;;;;;;5027118;28;20107;-70
2022/04/07 12:29:13;;;;;;;7.85;1.83;;;;;;;;;;5022904;28;20033;-70
2022/04/07 12:31:39;;;;;;;7.72;1.65;;;;;;;;;;5024103;28;20087;-69
2022/04/07 12:34:09;;;;;;;10.27;2.05;;;;;;;;;;5030618;28;20025;-69
2022/04/07 12:36:36;;;;;;;5.22;1.60;;;;;;;;;;5028585;28;20113;-69
2022/04/07 12:39:12;;;;;;;10.13;1.70;;;;;;;;;;5017087;28;20033;-69
2022/04/07 12:41:54;;;;;;;8.43;1.95;;;;;;;;;;5018789;28;20042;-71
2022/04/07 12:44:26;;;;;;;5.32;1.00;;;;;;;;;;5020320;28;20033;-70
2022/04/07 12:47:01;;;;;;;6.00;1.27;;;;;;;;;;5025919;28;20021;-70
2022/04/07 12:49:34;;;;;;;3.85;1.00;;;;;;;;;;5023687;28;20033;-71
2022/04/07 12:52:14;;;;;;;4.63;0.98;;;;;;;;;;5027587;28;20108;-70
2022/04/07 12:55:01;;;;;;;9.45;1.30;;;;;;;;;;5060227;28;20041;-70
2022/04/07 12:57:40;;;;;;;18.95;1.83;;;;;;;;;;5024960;28;20033;-70
2022/04/07 13:00:10;;;;;;;12.40;1.88;;;;;;;;;;5028955;28;20075;-70
2022/04/07 13:02:44;;;;;;;9.77;2.00;;;;;;;;;;5027219;28;20037;-70
2022/04/07 13:05:10;;;;;;;5.55;0.90;;;;;;;;;;5042226;28;20114;-70
2022/04/07 13:07:36;;;;;;;8.00;1.45;;;;;;;;;;5026717;28;20397;-70
2022/04/07 13:10:02;;;;;;;4.53;1.08;;;;;;;;;;5029965;28;20112;-70
2022/04/07 13:12:29;;;;;;;12.48;1.50;;;;;;;;;;5025857;28;20409;-70
2022/04/07 13:14:55;;;;;;;10.85;2.10;;;;;;;;;;5028000;28;20038;-70
2022/04/07 13:17:21;;;;;;;15.05;2.25;;;;;;;;;;5023353;28;20030;-69
2022/04/07 13:19:47;;;;;;;13.18;2.40;;;;;;;;;;5019343;28;20131;-70
2022/04/07 13:22:13;;;;;;;17.38;1.90;;;;;;;;;;5025291;28;20092;-70
2022/04/07 13:24:41;;;;;;;15.77;2.80;;;;;;;;;;5043783;28;20041;-69
2022/04/07 13:27:08;;;;;;;20.27;2.42;;;;;;;;;;5027173;28;20061;-71
2022/04/07 13:29:36;;;;;;;4.63;0.77;;;;;;;;;;5029922;28;20423;-71
2022/04/07 13:32:02;;;;;;;5.82;0.70;;;;;;;;;;5030106;28;20034;-71
2022/04/07 13:34:28;;;;;;;12.32;1.48;;;;;;;;;;5038914;28;20033;-71
2022/04/07 13:36:54;;;;;;;8.85;1.23;;;;;;;;;;5039192;28;20029;-71
2022/04/07 13:39:20;;;;;;;6.70;1.08;;;;;;;;;;5030612;28;20056;-71
2022/04/07 13:41:46;;;;;;;9.75;2.53;;;;;;;;;;5012830;28;20033;-71
2022/04/07 13:44:12;;;;;;;7.47;1.27;;;;;;;;;;5029465;28;20025;-71
2022/04/07 13:46:38;;;;;;;6.00;1.25;;;;;;;;;;5031159;28;20045;-71
2022/04/07 13:49:05;;;;;;;3.15;0.88;;;;;;;;;;5035459;28;20025;-71
2022/04/07 13:51:31;;;;;;;5.05;0.90;;;;;;;;;;5030907;28;20116;-71
2022/04/07 13:53:57;;;;;;;4.72;0.95;;;;;;;;;;5065359;28;20500;-71
2022/04/07 13:56:23;;;;;;;4.18;0.88;;;;;;;;;;5034068;28;20041;-71
2022/04/07 13:58:50;;;;;;;5.97;0.93;;;;;;;;;;5034443;28;20475;-71
2022/04/07 14:01:20;;;;;;;5.97;1.55;;;;;;;;;;5033274;28;20072;-71
2022/04/07 14:03:47;;;;;;;5.45;1.75;;;;;;;;;;5036908;28;20029;-71
2022/04/07 14:06:13;;;;;;;5.68;1.70;;;;;;;;;;5049145;28;20148;-72
2022/04/07 14:08:39;;;;;;;4.22;0.82;;;;;;;;;;5032829;28;20388;-72
2022/04/07 14:11:05;;;;;;;7.25;1.60;;;;;;;;;;5030564;28;20041;-72
2022/04/07 14:13:31;;;;;;;11.43;2.05;;;;;;;;;;5031336;28;20042;-72
2022/04/07 14:15:57;;;;;;;5.15;1.10;;;;;;;;;;5032382;28;20044;-71
2022/04/07 14:18:23;;;;;;;22.95;3.53;;;;;;;;;;5033333;28;20378;-71
2022/04/07 14:20:50;;;;;;;13.68;3.05;;;;;;;;;;5029022;28;20489;-71
2022/04/07 14:23:16;;;;;;;8.80;2.13;;;;;;;;;;5023661;28;20033;-71
2022/04/07 14:25:42;;;;;;;13.05;2.08;;;;;;;;;;5061534;28;20087;-71
2022/04/07 14:28:09;;;;;;;9.18;2.13;;;;;;;;;;5031126;28;20179;-71
2022/04/07 14:30:35;;;;;;;16.98;3.25;;;;;;;;;;5033456;28;20121;-71
2022/04/07 14:33:03;;;;;;;15.85;3.65;;;;;;;;;;5024013;28;20034;-71
2022/04/07 14:35:30;;;;;;;23.75;3.40;;;;;;;;;;5028229;28;20087;-72